createdAt,value
2019-03-02T00:00:25.174Z,22.07
2019-03-02T00:02:56.839Z,28.97
2019-03-02T00:05:24.335Z,17.77
2019-03-02T00:07:53.630Z,18.10
2019-03-02T00:10:23.898Z,18.37
2019-03-02T00:12:52.297Z,20.23
2019-03-02T00:15:20.689Z,17.00
2019-03-02T00:17:50.676Z,18.10
2019-03-02T00:20:19.389Z,19.97
2019-03-02T00:22:47.749Z,20.17
2019-03-02T00:25:16.192Z,18.90
2019-03-02T00:27:44.596Z,22.33
2019-03-02T00:30:17.654Z,18.63
2019-03-02T00:32:45.045Z,19.70
2019-03-02T00:35:14.360Z,17.93
2019-03-02T00:37:42.778Z,22.13
2019-03-02T00:40:11.735Z,20.47
2019-03-02T00:42:40.144Z,21.17
2019-03-02T00:45:14.186Z,19.50
2019-03-02T00:47:41.711Z,17.60
2019-03-02T00:50:11.465Z,23.30
2019-03-02T00:52:39.925Z,25.00
2019-03-02T00:55:08.885Z,22.60
2019-03-02T00:57:37.365Z,18.23
2019-03-02T01:00:11.633Z,21.40
2019-03-02T01:02:39.650Z,19.17
2019-03-02T01:05:09.196Z,18.90
2019-03-02T01:07:37.597Z,21.80
2019-03-02T01:10:12.081Z,20.47
2019-03-02T01:12:43.971Z,21.80
2019-03-02T01:15:13.409Z,25.10
2019-03-02T01:17:42.339Z,23.37
2019-03-02T01:20:12.787Z,23.47
2019-03-02T01:22:41.341Z,25.97
2019-03-02T01:25:13.404Z,23.07
2019-03-02T01:27:42.883Z,26.50
2019-03-02T01:30:14.230Z,28.30
2019-03-02T01:32:42.644Z,28.00
2019-03-02T01:35:11.290Z,29.40
2019-03-02T01:37:39.944Z,34.20
2019-03-02T01:40:12.963Z,31.57
2019-03-02T01:42:41.537Z,27.43
2019-03-02T01:45:12.687Z,28.70
2019-03-02T01:47:41.115Z,28.90
2019-03-02T01:50:12.772Z,32.63
2019-03-02T01:52:41.332Z,30.87
2019-03-02T01:55:11.001Z,29.00
2019-03-02T01:57:39.398Z,27.53
2019-03-02T02:00:14.549Z,30.47
2019-03-02T02:02:43.038Z,27.00
2019-03-02T02:05:11.907Z,29.63
2019-03-02T02:07:40.383Z,39.57
2019-03-02T02:10:13.685Z,27.10
2019-03-02T02:12:42.179Z,26.27
2019-03-02T02:15:13.632Z,31.97
2019-03-02T02:17:42.202Z,24.73
2019-03-02T02:20:14.581Z,26.20
2019-03-02T02:22:43.401Z,28.47
2019-03-02T02:25:14.360Z,26.07
2019-03-02T02:27:42.760Z,30.40
2019-03-02T02:30:24.652Z,27.93
2019-03-02T02:32:50.194Z,30.30
2019-03-02T02:35:18.732Z,31.67
2019-03-02T02:37:47.288Z,36.10
2019-03-02T02:40:15.951Z,28.83
2019-03-02T02:42:44.898Z,30.70
2019-03-02T02:45:16.820Z,31.83
2019-03-02T02:47:50.488Z,32.33
2019-03-02T02:50:18.042Z,29.93
2019-03-02T02:52:46.510Z,30.47
2019-03-02T02:55:15.483Z,32.20
2019-03-02T02:57:44.015Z,30.77
2019-03-02T03:00:23.972Z,32.20
2019-03-02T03:02:52.501Z,30.20
2019-03-02T03:05:21.148Z,31.80
2019-03-02T03:07:53.136Z,34.03
2019-03-02T03:10:36.376Z,30.70
2019-03-02T03:13:05.240Z,34.00
2019-03-02T03:15:41.623Z,37.33
2019-03-02T03:18:15.028Z,40.47
2019-03-02T03:20:47.618Z,38.27
2019-03-02T03:23:10.365Z,32.97
2019-03-02T03:25:38.838Z,36.00
2019-03-02T03:28:07.334Z,42.53
2019-03-02T03:30:39.401Z,41.77
2019-03-02T03:33:05.877Z,35.50
2019-03-02T03:35:34.420Z,43.50
2019-03-02T03:38:02.946Z,39.70
2019-03-02T03:40:31.377Z,36.77
2019-03-02T03:43:03.155Z,36.70
2019-03-02T03:45:30.005Z,40.57
2019-03-02T03:47:58.436Z,35.23
2019-03-02T03:50:26.870Z,37.03
2019-03-02T03:52:55.271Z,45.00
2019-03-02T03:55:25.068Z,40.73
2019-03-02T03:57:55.409Z,42.53
2019-03-02T04:00:24.266Z,43.23
2019-03-02T04:02:52.727Z,39.20
2019-03-02T04:05:21.141Z,46.50
2019-03-02T04:07:51.446Z,47.93
2019-03-02T04:10:25.751Z,49.83
2019-03-02T04:12:49.969Z,43.93
2019-03-02T04:15:18.642Z,48.20
2019-03-02T04:17:47.102Z,43.30
2019-03-02T04:20:24.510Z,41.20
2019-03-02T04:22:54.571Z,46.70
2019-03-02T04:25:23.034Z,44.43
2019-03-02T04:27:54.465Z,50.47
2019-03-02T04:30:21.610Z,45.03
2019-03-02T04:32:50.030Z,43.53
2019-03-02T04:35:18.427Z,48.83
2019-03-02T04:37:46.905Z,47.40
2019-03-02T04:40:15.331Z,42.23
2019-03-02T04:42:46.536Z,44.40
2019-03-02T04:45:14.041Z,44.60
2019-03-02T04:47:42.446Z,45.87
2019-03-02T04:50:11.014Z,51.90
2019-03-02T04:52:39.470Z,59.87
2019-03-02T04:55:13.450Z,43.53
2019-03-02T04:57:40.449Z,52.70
2019-03-02T05:00:14.802Z,55.20
2019-03-02T05:02:43.284Z,57.17
2019-03-02T05:05:11.766Z,55.30
2019-03-02T05:07:40.189Z,52.90
2019-03-02T05:10:11.051Z,60.00
2019-03-02T05:12:39.635Z,59.03
2019-03-02T05:15:15.948Z,55.43
2019-03-02T05:17:44.068Z,51.27
2019-03-02T05:20:12.643Z,51.40
2019-03-02T05:22:41.187Z,56.20
2019-03-02T05:25:10.344Z,60.67
2019-03-02T05:27:38.802Z,61.93
2019-03-02T05:30:10.271Z,61.47
2019-03-02T05:32:38.846Z,61.10
2019-03-02T05:35:07.535Z,56.03
2019-03-02T05:37:39.089Z,53.53
2019-03-02T05:40:11.592Z,60.50
2019-03-02T05:42:40.166Z,53.50
2019-03-02T05:45:13.011Z,65.43
2019-03-02T05:47:41.459Z,75.90
2019-03-02T05:50:12.181Z,63.77
2019-03-02T05:52:40.676Z,66.10
2019-03-02T05:55:09.725Z,52.77
2019-03-02T05:57:40.514Z,55.83
2019-03-02T06:00:14.321Z,57.43
2019-03-02T06:02:42.906Z,60.30
2019-03-02T06:05:11.381Z,60.87
2019-03-02T06:07:39.885Z,59.13
2019-03-02T06:10:10.935Z,71.23
2019-03-02T06:12:39.382Z,68.90
2019-03-02T06:15:10.807Z,68.13
2019-03-02T06:17:39.215Z,66.60
2019-03-02T06:20:09.381Z,63.60
2019-03-02T06:22:38.360Z,67.27
2019-03-02T06:25:19.446Z,60.67
2019-03-02T06:27:43.071Z,65.93
2019-03-02T06:30:15.400Z,70.87
2019-03-02T06:32:43.877Z,71.93
2019-03-02T06:35:12.285Z,75.00
2019-03-02T06:37:40.731Z,76.47
2019-03-02T06:40:10.687Z,75.77
2019-03-02T06:42:41.842Z,75.47
2019-03-02T06:45:15.324Z,66.77
2019-03-02T06:47:43.878Z,75.30
2019-03-02T06:50:17.280Z,75.67
2019-03-02T06:52:45.769Z,76.77
2019-03-02T06:55:15.438Z,60.90
2019-03-02T06:57:46.170Z,67.97
2019-03-02T07:00:19.140Z,64.97
2019-03-02T07:02:47.708Z,65.63
2019-03-02T07:05:16.270Z,65.90
2019-03-02T07:07:44.690Z,62.17
2019-03-02T07:10:17.721Z,64.57
2019-03-02T07:12:46.981Z,61.33
2019-03-02T07:15:16.286Z,61.67
2019-03-02T07:18:06.333Z,55.00
2019-03-02T07:20:34.478Z,62.33
2019-03-02T07:23:02.911Z,59.53
2019-03-02T07:25:31.336Z,58.30
2019-03-02T07:28:01.827Z,64.37
2019-03-02T07:30:29.937Z,65.60
2019-03-02T07:32:58.395Z,70.37
2019-03-02T07:35:26.809Z,64.77
2019-03-02T07:37:55.234Z,63.60
2019-03-02T07:40:23.720Z,62.90
2019-03-02T07:42:52.082Z,58.37
2019-03-02T07:45:20.668Z,62.50
2019-03-02T07:47:49.107Z,68.83
2019-03-02T07:50:17.685Z,65.47
2019-03-02T07:52:49.773Z,68.17
2019-03-02T07:55:18.726Z,62.40
2019-03-02T07:57:46.448Z,69.63
2019-03-02T08:00:22.559Z,69.70
2019-03-02T08:02:50.965Z,63.57
2019-03-02T08:05:19.462Z,70.27
2019-03-02T08:07:47.938Z,62.20
2019-03-02T08:10:16.785Z,58.33
2019-03-02T08:12:45.290Z,63.10
2019-03-02T08:15:28.410Z,72.10
2019-03-02T08:17:56.835Z,57.77
2019-03-02T08:20:26.209Z,65.50
2019-03-02T08:22:54.818Z,63.27
2019-03-02T08:25:23.227Z,63.23
2019-03-02T08:27:51.785Z,52.70
2019-03-02T08:30:22.248Z,62.27
2019-03-02T08:32:54.061Z,51.07
2019-03-02T08:35:21.077Z,62.10
2019-03-02T08:37:49.490Z,64.50
2019-03-02T08:40:19.371Z,54.90
2019-03-02T08:42:48.262Z,53.57
2019-03-02T08:45:20.199Z,56.53
2019-03-02T08:47:48.759Z,53.43
2019-03-02T08:50:18.819Z,67.60
2019-03-02T08:52:49.679Z,56.60
2019-03-02T08:55:22.088Z,55.90
2019-03-02T08:57:53.949Z,55.97
2019-03-02T09:00:24.189Z,51.57
2019-03-02T09:02:55.249Z,51.70
2019-03-02T09:05:26.086Z,53.00
2019-03-02T09:07:53.152Z,53.87
2019-03-02T09:10:21.942Z,58.90
2019-03-02T09:12:58.289Z,58.87
2019-03-02T09:15:30.280Z,55.13
2019-03-02T09:17:58.992Z,52.97
2019-03-02T09:20:27.717Z,53.73
2019-03-02T09:23:00.037Z,57.40
2019-03-02T09:25:27.927Z,58.47
2019-03-02T09:27:56.657Z,47.67
2019-03-02T09:30:25.144Z,47.30
2019-03-02T09:32:55.443Z,56.77
2019-03-02T09:35:23.857Z,53.60
2019-03-02T09:37:52.330Z,51.10
2019-03-02T09:40:24.273Z,51.23
2019-03-02T09:42:52.568Z,55.73
2019-03-02T09:45:22.228Z,52.80
2019-03-02T09:47:52.270Z,52.47
2019-03-02T09:50:23.029Z,55.60
2019-03-02T09:52:51.510Z,55.33
2019-03-02T09:55:20.610Z,50.67
2019-03-02T09:57:49.355Z,58.23
2019-03-02T10:00:25.627Z,53.60
2019-03-02T10:02:53.907Z,53.63
2019-03-02T10:05:22.442Z,53.87
2019-03-02T10:07:51.005Z,55.17
2019-03-02T10:10:19.755Z,49.63
2019-03-02T10:12:51.392Z,56.57
2019-03-02T10:15:23.717Z,54.50
2019-03-02T10:17:52.363Z,54.53
2019-03-02T10:20:20.946Z,51.67
2019-03-02T10:22:49.351Z,53.80
2019-03-02T10:25:18.526Z,57.97
2019-03-02T10:27:47.220Z,60.63
2019-03-02T10:30:27.133Z,63.10
2019-03-02T10:32:57.150Z,57.23
2019-03-02T10:35:26.087Z,51.70
2019-03-02T10:37:54.486Z,49.17
2019-03-02T10:40:23.534Z,47.73
2019-03-02T10:42:52.031Z,49.43
2019-03-02T10:45:21.993Z,46.67
2019-03-02T10:47:50.551Z,44.70
2019-03-02T10:50:29.134Z,49.57
2019-03-02T10:52:57.644Z,53.50
2019-03-02T10:55:26.188Z,49.10
2019-03-02T10:57:54.589Z,52.03
2019-03-02T11:00:30.834Z,52.40
2019-03-02T11:03:04.380Z,52.63
2019-03-02T11:05:37.661Z,49.20
2019-03-02T11:08:07.777Z,50.40
2019-03-02T11:10:53.875Z,51.20
2019-03-02T11:13:23.924Z,45.00
2019-03-02T11:15:54.042Z,53.43
2019-03-02T11:18:30.970Z,52.77
2019-03-02T11:21:04.601Z,42.03
2019-03-02T11:23:40.900Z,45.23
2019-03-02T11:26:20.302Z,45.10
2019-03-02T11:28:54.047Z,46.10
2019-03-02T11:31:30.058Z,46.30
2019-03-02T11:34:12.332Z,56.80
2019-03-02T11:37:00.716Z,54.90
2019-03-02T11:39:33.791Z,50.53
2019-03-02T11:42:06.459Z,42.97
2019-03-02T11:44:51.663Z,49.87
2019-03-02T11:47:21.702Z,49.97
2019-03-02T11:49:51.799Z,45.37
2019-03-02T11:52:40.226Z,46.13
2019-03-02T11:55:19.508Z,47.03
2019-03-02T11:57:57.169Z,48.37
2019-03-02T12:00:37.512Z,54.07
2019-03-02T12:03:02.421Z,45.80
2019-03-02T12:05:41.858Z,51.10
2019-03-02T12:08:28.210Z,43.27
2019-03-02T12:11:07.052Z,44.70
2019-03-02T12:13:38.553Z,46.77
2019-03-02T12:16:08.682Z,41.80
2019-03-02T12:18:47.470Z,46.47
2019-03-02T12:21:17.924Z,39.30
2019-03-02T12:23:57.791Z,45.50
2019-03-02T12:26:27.912Z,44.27
2019-03-02T12:29:00.795Z,42.47
2019-03-02T12:31:36.843Z,39.70
2019-03-02T12:34:07.636Z,43.60
2019-03-02T12:36:53.234Z,47.27
2019-03-02T12:39:27.221Z,44.67
2019-03-02T12:42:12.376Z,35.60
2019-03-02T12:44:44.862Z,47.47
2019-03-02T12:47:14.999Z,41.40
2019-03-02T12:50:01.489Z,39.37
2019-03-02T12:52:34.332Z,45.33
2019-03-02T12:55:04.479Z,39.57
2019-03-02T12:57:37.457Z,47.77
2019-03-02T13:00:16.405Z,45.73
2019-03-02T13:02:55.589Z,36.80
2019-03-02T13:05:25.667Z,47.20
2019-03-02T13:08:14.866Z,37.40
2019-03-02T13:10:53.381Z,33.40
2019-03-02T13:13:23.215Z,40.83
2019-03-02T13:16:02.021Z,39.33
2019-03-02T13:18:40.927Z,37.57
2019-03-02T13:21:15.362Z,37.00
2019-03-02T13:23:45.526Z,40.13
2019-03-02T13:26:15.575Z,44.10
2019-03-02T13:28:46.378Z,36.17
2019-03-02T13:31:31.994Z,35.53
2019-03-02T13:34:02.059Z,33.17
2019-03-02T13:36:35.165Z,34.23
2019-03-02T13:39:14.023Z,30.87
2019-03-02T13:41:46.435Z,38.40
2019-03-02T13:44:24.416Z,35.90
2019-03-02T13:47:00.447Z,39.53
2019-03-02T13:49:46.776Z,35.33
2019-03-02T13:52:25.760Z,33.90
2019-03-02T13:54:55.853Z,31.40
2019-03-02T13:57:37.961Z,29.10
2019-03-02T14:00:25.500Z,28.73
2019-03-02T14:02:55.630Z,30.33
2019-03-02T14:05:28.757Z,29.67
2019-03-02T14:08:12.620Z,28.37
2019-03-02T14:10:42.693Z,26.10
2019-03-02T14:13:12.775Z,20.97
2019-03-02T14:15:59.526Z,24.60
2019-03-02T14:18:29.708Z,24.90
2019-03-02T14:21:01.264Z,23.73
2019-03-02T14:23:40.842Z,26.87
2019-03-02T14:26:29.704Z,25.00
2019-03-02T14:29:02.627Z,32.83
2019-03-02T14:31:48.559Z,27.93
2019-03-02T14:34:18.658Z,27.67
2019-03-02T14:37:00.632Z,37.43
2019-03-02T14:39:34.580Z,27.27
2019-03-02T14:42:20.748Z,24.70
2019-03-02T14:44:54.096Z,22.93
2019-03-02T14:47:41.721Z,23.60
2019-03-02T14:50:22.263Z,24.07
2019-03-02T14:53:06.243Z,22.70
2019-03-02T14:55:40.444Z,34.80
2019-03-02T14:58:16.580Z,18.27
2019-03-02T15:01:04.255Z,17.87
2019-03-02T15:03:40.238Z,26.60
2019-03-02T15:06:26.389Z,23.63
2019-03-02T15:08:56.429Z,21.93
2019-03-02T15:11:32.422Z,15.50
2019-03-02T15:14:24.796Z,18.53
2019-03-02T15:16:54.874Z,22.80
2019-03-02T15:19:56.127Z,21.13
2019-03-02T15:22:20.422Z,18.87
2019-03-02T15:25:04.561Z,20.17
2019-03-02T15:27:34.659Z,21.00
2019-03-02T15:30:14.223Z,25.97
2019-03-02T15:33:00.365Z,27.73
2019-03-02T15:35:33.635Z,25.23
2019-03-02T15:38:21.522Z,23.90
2019-03-02T15:40:57.409Z,19.13
2019-03-02T15:43:31.305Z,20.47
2019-03-02T15:46:11.155Z,21.43
2019-03-02T15:48:56.121Z,21.50
2019-03-02T15:51:26.944Z,30.03
2019-03-02T15:53:58.145Z,32.57
2019-03-02T15:56:43.418Z,23.90
2019-03-02T15:59:32.165Z,14.27
2019-03-02T16:02:07.573Z,23.93
2019-03-02T16:04:40.469Z,18.00
2019-03-02T16:07:10.589Z,21.13
2019-03-02T16:09:43.448Z,18.70
2019-03-02T16:12:13.561Z,16.57
2019-03-02T16:14:43.618Z,18.50
2019-03-02T16:17:13.760Z,14.17
2019-03-02T16:20:02.274Z,15.07
2019-03-02T16:22:33.266Z,19.30
2019-03-02T16:25:04.994Z,18.87
2019-03-02T16:27:44.495Z,23.00
2019-03-02T16:30:33.000Z,20.43
2019-03-02T16:33:18.450Z,32.97
2019-03-02T16:36:05.035Z,21.13
2019-03-02T16:38:48.045Z,17.00
2019-03-02T16:41:31.119Z,16.33
2019-03-02T16:44:07.695Z,17.77
2019-03-02T16:46:38.465Z,19.10
2019-03-02T16:49:18.410Z,19.17
2019-03-02T16:52:06.229Z,16.60
2019-03-02T16:54:48.751Z,15.97
2019-03-02T16:57:34.613Z,16.73
2019-03-02T17:00:10.417Z,21.43
2019-03-02T17:02:46.799Z,19.87
2019-03-02T17:08:31.116Z,23.83
2019-03-02T17:11:05.150Z,13.67
2019-03-02T17:13:35.313Z,16.40
2019-03-02T17:16:23.931Z,15.20
2019-03-02T17:18:54.555Z,10.97
2019-03-02T17:21:30.903Z,13.63
2019-03-02T17:24:01.049Z,10.20
2019-03-02T17:26:34.039Z,10.13
2019-03-02T17:29:13.620Z,12.87
2019-03-02T17:31:43.687Z,12.67
2019-03-02T17:34:29.996Z,9.23
2019-03-02T17:37:18.670Z,13.93
2019-03-02T17:40:05.743Z,14.80
2019-03-02T17:42:45.615Z,11.50
2019-03-02T17:45:15.908Z,18.73
2019-03-02T17:47:45.991Z,12.87
2019-03-02T17:50:28.365Z,10.17
2019-03-02T17:52:58.437Z,8.50
2019-03-02T17:55:29.576Z,11.60
2019-03-02T17:58:11.483Z,9.47
2019-03-02T18:00:47.561Z,11.70
2019-03-02T18:03:29.843Z,10.57
2019-03-02T18:06:09.014Z,9.67
2019-03-02T18:08:45.006Z,10.20
2019-03-02T18:11:30.487Z,12.50
2019-03-02T18:14:03.693Z,12.00
2019-03-02T18:16:50.363Z,12.43
2019-03-02T18:19:18.799Z,14.90
2019-03-02T18:21:47.272Z,10.07
2019-03-02T18:24:15.641Z,13.60
2019-03-02T18:26:44.124Z,14.77
2019-03-02T18:29:13.124Z,14.00
2019-03-02T18:31:41.613Z,12.77
2019-03-02T18:34:11.684Z,14.10
2019-03-02T18:36:41.800Z,13.07
2019-03-02T18:39:10.599Z,11.67
2019-03-02T18:41:39.089Z,15.73
2019-03-02T18:44:07.602Z,14.80
2019-03-02T18:46:36.006Z,10.30
2019-03-02T18:49:18.198Z,11.40
2019-03-02T18:51:53.710Z,11.83
2019-03-02T18:54:22.121Z,13.83
2019-03-02T18:56:50.595Z,12.03
2019-03-02T18:59:19.036Z,13.87
2019-03-02T19:01:48.922Z,9.00
2019-03-02T19:04:19.305Z,10.73
2019-03-02T19:06:49.143Z,11.10
2019-03-02T19:09:17.914Z,14.30
2019-03-02T19:11:46.308Z,11.63
2019-03-02T19:14:17.036Z,12.17
2019-03-02T19:16:44.973Z,7.57
2019-03-02T19:19:13.480Z,13.33
2019-03-02T19:21:41.904Z,13.57
2019-03-02T19:24:10.418Z,9.80
2019-03-02T19:26:38.841Z,14.53
2019-03-02T19:29:07.361Z,8.10
2019-03-02T19:31:35.804Z,10.40
2019-03-02T19:34:04.360Z,8.83
2019-03-02T19:36:32.875Z,7.20
2019-03-02T19:39:01.291Z,8.93
2019-03-02T19:41:29.722Z,8.60
2019-03-02T19:43:58.151Z,9.10
2019-03-02T19:46:26.587Z,11.73
2019-03-02T19:48:55.445Z,28.93
2019-03-02T19:51:23.951Z,11.87
2019-03-02T19:53:52.487Z,9.53
2019-03-02T19:56:21.045Z,10.13
2019-03-02T19:58:49.723Z,10.27
2019-03-02T20:01:18.432Z,8.90
2019-03-02T20:03:47.327Z,12.43
2019-03-02T20:06:16.099Z,14.97
2019-03-02T20:08:44.725Z,12.60
2019-03-02T20:11:13.366Z,10.33
2019-03-02T20:13:41.944Z,10.93
2019-03-02T20:16:10.355Z,10.47
2019-03-02T20:18:40.465Z,10.87
2019-03-02T20:21:10.029Z,18.03
2019-03-02T20:23:38.648Z,12.53
2019-03-02T20:26:07.413Z,11.93
2019-03-02T20:28:36.266Z,11.67
2019-03-02T20:31:05.118Z,11.87
2019-03-02T20:33:34.604Z,10.13
2019-03-02T20:36:03.152Z,14.50
2019-03-02T20:38:31.689Z,10.47
2019-03-02T20:41:01.786Z,11.97
2019-03-02T20:43:30.328Z,13.87
2019-03-02T20:46:00.696Z,16.57
2019-03-02T20:48:29.192Z,14.57
2019-03-02T20:50:58.161Z,10.03
2019-03-02T20:53:26.669Z,12.93
2019-03-02T20:55:55.177Z,11.77
2019-03-02T20:58:23.771Z,14.63
2019-03-02T21:00:52.267Z,10.90
2019-03-02T21:03:20.761Z,11.43
2019-03-02T21:05:49.339Z,16.50
2019-03-02T21:08:17.822Z,10.90
2019-03-02T21:10:46.444Z,12.07
2019-03-02T21:13:17.267Z,16.97
2019-03-02T21:15:47.414Z,14.67
2019-03-02T21:18:15.893Z,16.53
2019-03-02T21:20:44.323Z,14.30
2019-03-02T21:23:12.851Z,12.90
2019-03-02T21:25:41.291Z,14.87
2019-03-02T21:28:09.835Z,14.40
2019-03-02T21:30:38.325Z,16.70
2019-03-02T21:33:06.812Z,11.70
2019-03-02T21:42:00.267Z,17.50
2019-03-02T21:44:29.243Z,16.63
2019-03-02T21:50:35.834Z,12.67
2019-03-02T21:53:05.899Z,10.77
2019-03-02T21:56:32.481Z,22.83
2019-03-02T21:59:07.369Z,17.07
2019-03-02T22:01:36.761Z,17.63
2019-03-02T22:04:05.515Z,16.00
2019-03-02T22:06:36.121Z,12.40
2019-03-02T22:09:05.553Z,18.83
2019-03-02T22:11:35.448Z,21.37
2019-03-02T22:14:04.041Z,14.40
2019-03-02T22:16:32.442Z,18.60
2019-03-02T22:19:03.604Z,19.47
2019-03-02T22:21:32.035Z,20.93
2019-03-02T22:24:00.586Z,19.03
2019-03-02T22:26:29.023Z,18.77
2019-03-02T22:29:06.659Z,15.90
2019-03-02T22:31:36.883Z,20.50
2019-03-02T22:37:38.454Z,30.23
2019-03-02T22:40:24.229Z,18.80
2019-03-02T22:42:52.757Z,19.73
2019-03-02T22:45:21.589Z,21.33
2019-03-02T22:47:50.055Z,20.63
2019-03-02T22:50:27.685Z,19.20
2019-03-02T22:52:57.044Z,21.97
2019-03-02T22:58:56.074Z,17.63
2019-03-02T23:01:47.430Z,19.03
2019-03-02T23:04:17.536Z,15.70
2019-03-02T23:06:46.033Z,14.70
2019-03-02T23:09:14.545Z,24.53
2019-03-02T23:11:43.032Z,15.93
2019-03-02T23:14:11.466Z,18.73
2019-03-02T23:16:39.883Z,15.97
2019-03-02T23:19:08.453Z,23.17
2019-03-02T23:21:37.000Z,20.40
2019-03-02T23:24:05.528Z,19.27
2019-03-02T23:26:33.946Z,18.80
2019-03-02T23:29:02.376Z,15.07
2019-03-02T23:31:30.827Z,20.80
2019-03-02T23:33:59.283Z,11.63
2019-03-02T23:36:27.706Z,15.20
2019-03-02T23:38:56.116Z,17.50
2019-03-02T23:41:24.555Z,21.63
2019-03-02T23:43:52.980Z,13.10
2019-03-02T23:46:21.458Z,17.40
2019-03-02T23:48:49.869Z,15.93
2019-03-02T23:51:18.292Z,13.63
2019-03-02T23:53:46.694Z,12.50
2019-03-02T23:56:15.852Z,17.47
2019-03-02T23:58:44.395Z,11.70
